Time;durP1;ratioP1;P1;durP2;ratioP2;P2;SDS_P1;SDS_P2;PMS_P1;PMS_P2;Temp;Humidity;BMP_temperature;BMP_pressure;BME280_temperature;BME280_humidity;BME280_pressure;Samples;Min_cycle;Max_cycle;Signal;HPM_P1;HPM_P2
2022/06/30 00:01:03;;;;;;;10.10;5.10;;;;;;;27.91;43.15;101336.20;1744395;80;20999;-51
2022/06/30 00:03:30;;;;;;;8.90;5.50;;;;;;;27.90;43.43;101335.86;1744336;81;20987;-52
2022/06/30 00:05:57;;;;;;;8.25;5.00;;;;;;;27.88;43.75;101345.32;1742907;81;21023;-52
2022/06/30 00:08:23;;;;;;;8.45;4.83;;;;;;;27.87;44.16;101348.14;1741121;81;21027;-49
2022/06/30 00:10:50;;;;;;;10.80;4.37;;;;;;;27.86;44.29;101343.78;1741338;81;20995;-49
2022/06/30 00:13:17;;;;;;;10.35;4.75;;;;;;;27.83;44.36;101345.36;1741337;81;21550;-50
2022/06/30 00:15:44;;;;;;;8.63;4.35;;;;;;;27.82;44.36;101337.82;1700626;83;21506;-49
2022/06/30 00:18:11;;;;;;;11.68;5.12;;;;;;;27.81;44.47;101343.30;1708722;83;21034;-49
2022/06/30 00:20:38;;;;;;;10.40;4.28;;;;;;;27.80;44.68;101341.63;1706726;82;21073;-50
2022/06/30 00:23:05;;;;;;;8.63;5.00;;;;;;;27.76;44.81;101341.02;1704565;83;21487;-50
2022/06/30 00:25:31;;;;;;;6.55;4.62;;;;;;;27.74;45.04;101336.28;1701462;83;21144;-49
2022/06/30 00:27:58;;;;;;;9.35;4.40;;;;;;;27.73;45.47;101335.09;1710786;83;21002;-50
2022/06/30 00:30:26;;;;;;;11.73;4.55;;;;;;;27.72;45.52;101334.23;1744311;81;21086;-49
2022/06/30 00:32:53;;;;;;;7.80;4.60;;;;;;;27.71;45.33;101334.36;1743563;80;21073;-51
2022/06/30 00:35:20;;;;;;;7.97;4.60;;;;;;;27.72;45.26;101345.44;1741462;81;21026;-48
2022/06/30 00:37:47;;;;;;;8.85;4.70;;;;;;;27.72;45.22;101360.14;1746674;82;20978;-53
2022/06/30 00:40:14;;;;;;;8.85;4.92;;;;;;;27.71;45.25;101353.08;1739469;82;21006;-49
2022/06/30 00:42:41;;;;;;;7.42;4.45;;;;;;;27.70;45.03;101354.08;1748151;81;21519;-49
2022/06/30 00:45:10;;;;;;;5.22;4.00;;;;;;;27.68;44.96;101350.66;1741194;81;21043;-50
2022/06/30 00:47:36;;;;;;;8.68;4.50;;;;;;;27.65;44.76;101350.92;1741652;81;21475;-50
2022/06/30 00:50:05;;;;;;;6.85;4.17;;;;;;;27.64;44.36;101349.21;1741375;81;21058;-50
2022/06/30 00:52:33;;;;;;;7.28;4.28;;;;;;;27.62;44.07;101351.16;1741546;81;21062;-48
2022/06/30 00:55:00;;;;;;;7.17;4.53;;;;;;;27.60;43.97;101353.12;1742078;81;21077;-49
2022/06/30 00:57:27;;;;;;;11.20;4.85;;;;;;;27.57;44.26;101353.39;1676386;83;21439;-50
2022/06/30 00:59:54;;;;;;;7.35;5.25;;;;;;;27.57;44.45;101343.55;1708686;83;21070;-49
2022/06/30 01:02:20;;;;;;;7.33;4.65;;;;;;;27.56;44.62;101338.31;1706648;83;21046;-49
2022/06/30 01:04:47;;;;;;;8.78;4.60;;;;;;;27.54;44.82;101341.60;1707210;83;21018;-52
2022/06/30 01:07:16;;;;;;;7.90;4.72;;;;;;;27.51;45.07;101340.53;1707707;83;21022;-49
2022/06/30 01:12:44;;;;;;;9.85;4.70;;;;;;;27.42;45.64;101338.13;1705000;83;21018;-52
2022/06/30 01:15:14;;;;;;;10.75;5.83;;;;;;;27.40;45.86;101336.08;1705721;83;21085;-53
2022/06/30 01:17:42;;;;;;;10.25;4.78;;;;;;;27.39;45.88;101329.02;1698627;84;21483;-49
2022/06/30 01:20:10;;;;;;;14.03;5.05;;;;;;;27.37;45.76;101326.48;1681319;84;21070;-52
2022/06/30 01:22:38;;;;;;;8.53;4.42;;;;;;;27.36;45.66;101318.12;1681373;84;21519;-52
2022/06/30 01:25:06;;;;;;;9.10;4.62;;;;;;;27.38;45.58;101325.52;1681320;84;21038;-53
2022/06/30 01:27:32;;;;;;;12.63;5.47;;;;;;;27.38;45.55;101328.67;1685805;83;21069;-50
2022/06/30 01:30:01;;;;;;;9.38;4.42;;;;;;;27.37;45.49;101329.16;1720764;81;21124;-54
2022/06/30 01:32:29;;;;;;;12.35;5.10;;;;;;;27.37;45.46;101322.47;1720185;81;21103;-50
2022/06/30 01:34:57;;;;;;;17.67;5.58;;;;;;;27.36;45.48;101320.79;1717964;81;21034;-55
2022/06/30 01:37:24;;;;;;;11.20;5.10;;;;;;;27.34;45.61;101317.40;1719980;81;21050;-51
2022/06/30 01:39:51;;;;;;;10.88;4.90;;;;;;;27.33;45.71;101317.47;1716857;83;21045;-51
2022/06/30 01:42:18;;;;;;;16.32;4.90;;;;;;;27.30;45.71;101314.59;1724429;81;21029;-52
2022/06/30 01:44:45;;;;;;;8.40;5.12;;;;;;;27.27;45.71;101313.48;1718456;81;21037;-49
2022/06/30 01:47:12;;;;;;;13.62;4.50;;;;;;;27.25;45.66;101315.92;1717950;81;21021;-49
2022/06/30 01:49:39;;;;;;;8.48;4.65;;;;;;;27.22;45.76;101317.02;1714641;83;21085;-52
2022/06/30 01:52:07;;;;;;;9.80;4.30;;;;;;;27.20;45.92;101320.30;1720556;81;21075;-49
2022/06/30 01:54:34;;;;;;;7.83;4.95;;;;;;;27.18;45.95;101322.25;1718730;81;21025;-51
2022/06/30 01:57:00;;;;;;;9.93;5.08;;;;;;;27.17;45.92;101327.72;1717388;81;21520;-49
2022/06/30 01:59:27;;;;;;;12.35;4.78;;;;;;;27.17;45.99;101335.27;1717956;81;21030;-50
2022/06/30 02:01:54;;;;;;;6.10;5.15;;;;;;;27.17;46.00;101331.25;1717708;81;21033;-55
2022/06/30 02:07:07;;;;;;;14.05;4.90;;;;;;;27.17;45.90;101333.92;1715499;81;21115;-51
2022/06/30 02:09:34;;;;;;;15.00;5.28;;;;;;;27.16;46.06;101335.39;1719615;80;21041;-52
2022/06/30 02:14:47;;;;;;;13.70;5.47;;;;;;;27.12;46.25;101337.45;1735791;81;20984;-51
2022/06/30 02:17:14;;;;;;;12.25;6.08;;;;;;;27.08;46.44;101344.02;1744415;81;21042;-50
2022/06/30 02:19:41;;;;;;;15.05;5.22;;;;;;;27.05;46.53;101349.63;1706881;83;20982;-51
2022/06/30 02:22:07;;;;;;;8.23;5.05;;;;;;;27.04;46.80;101354.59;1707279;83;21158;-51
2022/06/30 02:24:34;;;;;;;12.28;5.60;;;;;;;27.03;47.03;101354.23;1743451;82;21498;-50
2022/06/30 02:27:01;;;;;;;10.72;6.80;;;;;;;27.02;47.30;101361.88;1704424;83;21037;-51
2022/06/30 02:29:28;;;;;;;13.25;7.28;;;;;;;27.02;47.56;101352.53;1700910;84;21065;-50
2022/06/30 02:31:54;;;;;;;14.07;6.72;;;;;;;27.03;47.65;101355.58;1733914;81;21026;-49
2022/06/30 02:34:22;;;;;;;12.07;7.25;;;;;;;27.04;47.72;101345.23;1733338;81;21087;-49
2022/06/30 02:36:49;;;;;;;14.05;7.97;;;;;;;27.06;47.87;101361.98;1733434;81;21023;-51
2022/06/30 02:39:16;;;;;;;25.48;8.65;;;;;;;27.08;48.21;101361.38;1733416;81;21015;-49
2022/06/30 02:41:43;;;;;;;17.35;8.85;;;;;;;27.08;48.44;101357.37;1733521;81;21515;-50
2022/06/30 02:44:10;;;;;;;20.10;8.55;;;;;;;27.07;48.62;101359.70;1707334;83;21522;-51
2022/06/30 02:46:37;;;;;;;17.77;8.23;;;;;;;27.06;48.92;101359.31;1736695;81;21039;-48
2022/06/30 02:49:04;;;;;;;16.42;7.65;;;;;;;27.05;49.21;101366.98;1697162;84;21073;-49
2022/06/30 02:51:31;;;;;;;14.90;7.95;;;;;;;27.08;49.39;101360.04;1695149;84;21023;-51
2022/06/30 02:53:58;;;;;;;16.32;7.92;;;;;;;27.09;49.50;101358.23;1698071;84;21061;-50
2022/06/30 02:56:25;;;;;;;15.25;7.80;;;;;;;27.10;49.47;101360.77;1698276;84;21070;-52
2022/06/30 02:58:52;;;;;;;11.08;8.38;;;;;;;27.12;49.62;101365.50;1699434;84;21467;-50
2022/06/30 03:01:19;;;;;;;15.83;9.00;;;;;;;27.15;50.02;101365.74;1736400;81;21023;-53
2022/06/30 03:03:46;;;;;;;17.15;8.45;;;;;;;27.18;50.08;101368.18;1701238;84;21590;-51
2022/06/30 03:06:13;;;;;;;13.60;7.90;;;;;;;27.21;50.06;101362.09;1733824;81;21035;-50
2022/06/30 03:08:40;;;;;;;11.55;7.85;;;;;;;27.24;50.14;101361.82;1735072;80;21046;-52
2022/06/30 03:11:08;;;;;;;14.15;7.70;;;;;;;27.27;50.21;101362.92;1734069;82;21022;-52
2022/06/30 03:13:35;;;;;;;12.58;7.25;;;;;;;27.30;50.21;101362.69;1737028;81;21502;-49
2022/06/30 03:16:02;;;;;;;10.20;7.55;;;;;;;27.34;50.58;101360.64;1701102;84;21022;-50
2022/06/30 03:18:29;;;;;;;12.98;7.67;;;;;;;27.37;50.67;101357.70;1697795;84;21003;-50
2022/06/30 03:20:56;;;;;;;12.45;6.20;;;;;;;27.41;50.75;101358.31;1697838;84;21022;-49
2022/06/30 03:23:23;;;;;;;9.88;7.17;;;;;;;27.46;50.81;101358.77;1698173;84;21470;-51
2022/06/30 03:25:50;;;;;;;9.03;5.87;;;;;;;27.50;50.82;101361.55;1698195;84;21557;-55
2022/06/30 03:28:17;;;;;;;11.33;6.45;;;;;;;27.55;50.93;101367.38;1706439;83;21022;-50
2022/06/30 03:30:47;;;;;;;21.17;6.62;;;;;;;27.58;51.18;101353.73;1708508;83;21077;-51
2022/06/30 03:33:12;;;;;;;17.25;7.35;;;;;;;27.63;51.26;101358.23;1740035;81;21039;-50
2022/06/30 03:35:39;;;;;;;12.68;7.47;;;;;;;27.69;51.40;101365.73;1742089;81;21507;-54
2022/06/30 03:38:06;;;;;;;14.05;7.25;;;;;;;27.75;51.36;101367.41;1743393;82;21034;-49
2022/06/30 03:40:33;;;;;;;16.10;7.10;;;;;;;27.80;51.29;101370.53;1708718;83;21521;-51
2022/06/30 03:43:01;;;;;;;12.50;7.15;;;;;;;27.87;51.69;101366.86;1744727;81;21003;-55
2022/06/30 03:45:28;;;;;;;10.03;6.95;;;;;;;27.96;52.35;101370.14;1742826;81;20967;-52
2022/06/30 03:47:54;;;;;;;9.73;6.75;;;;;;;28.15;53.17;101371.63;1740958;81;21022;-49
2022/06/30 03:50:21;;;;;;;10.85;7.35;;;;;;;28.51;53.46;101373.80;1741614;81;20990;-50
2022/06/30 03:52:48;;;;;;;11.70;6.30;;;;;;;29.03;52.55;101373.25;1741616;81;21031;-50
2022/06/30 03:55:15;;;;;;;10.13;6.50;;;;;;;29.68;51.16;101370.84;1741443;81;21481;-51
2022/06/30 03:57:42;;;;;;;12.33;6.83;;;;;;;30.36;49.53;101370.68;1743390;81;21042;-49
2022/06/30 04:00:11;;;;;;;15.48;6.22;;;;;;;31.02;48.06;101373.27;1708931;83;21096;-55
2022/06/30 04:02:38;;;;;;;11.12;6.35;;;;;;;31.64;46.54;101380.03;1708675;83;21026;-52
2022/06/30 04:05:06;;;;;;;11.48;6.03;;;;;;;32.15;45.08;101378.48;1705756;83;21026;-52
2022/06/30 04:07:45;;;;;;;7.97;5.03;;;;;;;32.44;44.14;101379.02;1707649;83;21041;-52
2022/06/30 04:10:13;;;;;;;10.03;5.33;;;;;;;32.54;43.55;101382.48;1741911;82;21006;-52
2022/06/30 04:12:40;;;;;;;10.55;5.60;;;;;;;32.50;42.88;101379.77;1707471;83;20989;-54
2022/06/30 04:15:08;;;;;;;8.98;5.53;;;;;;;32.38;43.16;101382.33;1705661;83;21042;-51
2022/06/30 04:17:36;;;;;;;10.80;5.12;;;;;;;32.23;43.37;101386.13;1699683;83;21550;-50
2022/06/30 04:20:05;;;;;;;7.58;5.03;;;;;;;32.11;43.19;101383.31;1708800;83;21084;-51
2022/06/30 04:22:32;;;;;;;6.08;4.65;;;;;;;31.98;43.05;101391.80;1744536;81;21003;-53
2022/06/30 04:24:59;;;;;;;11.93;5.15;;;;;;;31.81;43.34;101388.61;1740172;82;21062;-51
2022/06/30 04:27:26;;;;;;;9.45;5.12;;;;;;;31.64;43.86;101389.45;1738186;81;21031;-49
2022/06/30 04:29:52;;;;;;;7.22;4.80;;;;;;;31.46;44.32;101387.75;1733444;81;21027;-53
2022/06/30 04:32:37;;;;;;;7.58;5.15;;;;;;;31.27;44.48;101390.03;1733421;81;20995;-55
2022/06/30 04:35:11;;;;;;;7.05;4.72;;;;;;;31.09;44.69;101389.16;1733488;81;21527;-51
2022/06/30 04:37:39;;;;;;;6.42;5.12;;;;;;;30.89;44.76;101388.39;1734052;81;20991;-51
2022/06/30 04:42:53;;;;;;;7.78;4.90;;;;;;;30.62;45.10;101379.44;1736716;81;21015;-52
2022/06/30 04:45:20;;;;;;;8.18;5.10;;;;;;;30.49;45.09;101373.91;1735038;81;20972;-49
2022/06/30 04:47:47;;;;;;;9.03;4.75;;;;;;;30.39;45.02;101369.06;1733212;81;21054;-51
2022/06/30 04:50:13;;;;;;;6.70;4.85;;;;;;;30.32;45.27;101373.31;1733814;81;21051;-50
2022/06/30 04:52:40;;;;;;;7.65;5.15;;;;;;;30.26;45.42;101373.00;1726943;81;21504;-54
2022/06/30 04:55:08;;;;;;;6.95;4.78;;;;;;;30.21;45.79;101372.61;1703467;84;21050;-53
2022/06/30 04:57:36;;;;;;;6.25;5.45;;;;;;;30.18;46.05;101375.56;1731786;82;21018;-50
2022/06/30 05:00:05;;;;;;;8.28;5.10;;;;;;;30.15;46.38;101382.06;1738207;81;21488;-53
2022/06/30 05:02:34;;;;;;;6.40;4.45;;;;;;;30.15;46.30;101375.35;1700970;84;21057;-51
2022/06/30 05:05:01;;;;;;;8.25;4.58;;;;;;;30.17;46.15;101381.42;1734465;81;21472;-49
2022/06/30 05:07:28;;;;;;;6.40;4.97;;;;;;;30.22;46.17;101383.19;1733577;81;21015;-51
2022/06/30 05:09:54;;;;;;;8.30;5.25;;;;;;;30.31;46.39;101379.69;1733463;81;21015;-56
2022/06/30 05:12:21;;;;;;;10.43;5.33;;;;;;;30.43;44.35;101379.86;1733612;81;21526;-49
2022/06/30 05:14:48;;;;;;;6.62;5.08;;;;;;;30.62;43.12;101374.07;1733798;81;21074;-53
2022/06/30 05:17:14;;;;;;;9.30;4.55;;;;;;;30.87;42.67;101378.81;1697989;84;21010;-50
2022/06/30 05:19:41;;;;;;;7.78;5.10;;;;;;;31.15;41.59;101386.72;1734723;81;21027;-50
2022/06/30 05:22:08;;;;;;;10.82;4.60;;;;;;;31.47;40.57;101378.17;1735048;81;21023;-52
2022/06/30 05:27:21;;;;;;;7.67;4.47;;;;;;;32.15;39.09;101382.52;1697073;83;21031;-50
2022/06/30 05:29:48;;;;;;;7.30;4.00;;;;;;;32.52;38.54;101377.75;1736583;81;21570;-53
2022/06/30 05:32:15;;;;;;;7.33;4.60;;;;;;;32.80;37.87;101382.78;1701071;84;21038;-49
2022/06/30 05:34:41;;;;;;;7.67;4.92;;;;;;;33.04;37.21;101380.71;1700047;84;21097;-53
2022/06/30 05:37:09;;;;;;;8.90;4.55;;;;;;;33.19;36.58;101384.48;1698479;84;21037;-49
2022/06/30 05:39:36;;;;;;;8.95;5.35;;;;;;;33.28;36.15;101386.20;1697752;84;21474;-50
2022/06/30 05:42:05;;;;;;;11.08;5.15;;;;;;;33.31;35.97;101391.25;1697807;84;21034;-49
2022/06/30 05:44:32;;;;;;;6.70;4.83;;;;;;;33.32;35.89;101391.61;1698149;84;21034;-52
2022/06/30 05:46:59;;;;;;;7.47;4.90;;;;;;;33.32;36.04;101386.20;1699389;84;21050;-52
2022/06/30 05:49:26;;;;;;;5.95;5.17;;;;;;;33.34;36.11;101380.14;1732160;82;21059;-50
2022/06/30 05:51:53;;;;;;;8.53;5.00;;;;;;;33.39;36.55;101388.56;1733619;81;21062;-52
2022/06/30 05:54:20;;;;;;;9.85;5.15;;;;;;;33.42;36.09;101380.16;1733057;81;21062;-49
2022/06/30 05:56:47;;;;;;;7.17;5.40;;;;;;;33.48;35.90;101384.04;1733576;81;21086;-54
2022/06/30 05:59:14;;;;;;;9.20;5.70;;;;;;;33.51;35.73;101378.36;1733629;81;21026;-53
2022/06/30 06:01:41;;;;;;;7.75;5.25;;;;;;;33.57;36.24;101378.51;1734214;81;21050;-50
2022/06/30 06:04:09;;;;;;;8.33;5.08;;;;;;;33.67;35.76;101380.22;1695044;84;21066;-50
2022/06/30 06:06:36;;;;;;;9.28;5.33;;;;;;;33.79;35.15;101376.17;1700995;84;21064;-49
2022/06/30 06:09:03;;;;;;;17.10;5.85;;;;;;;33.94;34.78;101378.55;1734302;81;21058;-51
2022/06/30 06:11:32;;;;;;;10.65;5.33;;;;;;;34.08;34.54;101383.30;1741365;81;21444;-54
2022/06/30 06:13:59;;;;;;;9.88;6.45;;;;;;;34.19;34.84;101377.55;1700040;84;21046;-51
2022/06/30 06:16:26;;;;;;;11.93;6.00;;;;;;;34.26;34.77;101382.59;1731460;82;21547;-49
2022/06/30 06:18:52;;;;;;;9.20;5.50;;;;;;;34.29;35.41;101380.91;1739065;81;21035;-52
2022/06/30 06:21:19;;;;;;;8.18;5.58;;;;;;;34.37;35.65;101385.80;1734616;81;21519;-49
2022/06/30 06:23:46;;;;;;;5.92;5.33;;;;;;;34.51;35.38;101380.71;1733257;81;21019;-50
2022/06/30 06:26:13;;;;;;;8.63;6.00;;;;;;;34.72;35.08;101384.55;1733533;81;21015;-52
2022/06/30 06:31:25;;;;;;;10.70;6.22;;;;;;;35.29;34.44;101381.59;1746410;80;21558;-49
2022/06/30 06:33:52;;;;;;;7.87;5.83;;;;;;;35.56;34.78;101375.70;1746590;80;21498;-54
2022/06/30 06:36:19;;;;;;;7.80;6.33;;;;;;;35.73;35.31;101375.92;1747796;80;21565;-49
2022/06/30 06:38:46;;;;;;;9.25;6.83;;;;;;;35.77;35.78;101374.53;1713986;83;21034;-50
2022/06/30 06:41:14;;;;;;;8.30;7.08;;;;;;;35.70;36.17;101366.78;1713514;83;21005;-53
2022/06/30 06:43:41;;;;;;;10.45;7.35;;;;;;;35.54;36.63;101368.27;1712671;83;21064;-50
2022/06/30 06:46:08;;;;;;;9.95;7.72;;;;;;;35.29;37.10;101372.12;1723475;83;21061;-54
2022/06/30 06:48:36;;;;;;;9.95;8.38;;;;;;;34.97;37.73;101371.23;1715996;83;21006;-52
2022/06/30 06:51:03;;;;;;;10.93;8.15;;;;;;;34.67;38.25;101369.84;1714181;83;21033;-51
2022/06/30 06:53:30;;;;;;;11.33;8.30;;;;;;;34.38;39.17;101367.70;1716581;83;20998;-56
2022/06/30 06:55:57;;;;;;;9.58;8.20;;;;;;;34.14;39.35;101371.80;1709936;83;21021;-51
2022/06/30 06:58:24;;;;;;;12.10;8.40;;;;;;;33.91;39.62;101372.97;1714942;83;21012;-49
2022/06/30 07:00:53;;;;;;;9.45;8.45;;;;;;;33.73;40.38;101375.00;1712425;83;21053;-50
2022/06/30 07:03:20;;;;;;;11.93;8.60;;;;;;;33.53;40.92;101367.70;1711268;83;21029;-49
2022/06/30 07:05:47;;;;;;;8.65;7.87;;;;;;;33.34;41.41;101373.90;1713052;83;21053;-54
2022/06/30 07:08:13;;;;;;;10.13;8.08;;;;;;;33.14;41.89;101365.23;1692092;83;21538;-51
2022/06/30 07:10:41;;;;;;;10.23;9.10;;;;;;;32.98;42.46;101362.48;1712739;83;21030;-53
2022/06/30 07:13:07;;;;;;;10.53;8.43;;;;;;;32.89;42.99;101364.27;1708736;83;21041;-51
2022/06/30 07:15:36;;;;;;;9.15;8.35;;;;;;;32.82;43.19;101371.83;1707194;83;21534;-52
2022/06/30 07:18:03;;;;;;;10.38;8.28;;;;;;;32.75;43.41;101368.94;1718802;83;21096;-51
2022/06/30 07:20:30;;;;;;;10.23;8.38;;;;;;;32.72;43.50;101365.23;1700973;83;21090;-50
2022/06/30 07:22:57;;;;;;;10.82;9.13;;;;;;;32.67;43.89;101366.70;1711828;83;21050;-52
2022/06/30 07:25:24;;;;;;;10.43;9.33;;;;;;;32.66;44.17;101366.38;1709722;83;21063;-49
2022/06/30 07:27:53;;;;;;;9.40;8.33;;;;;;;32.67;44.48;101364.00;1696280;83;21527;-53
2022/06/30 07:30:20;;;;;;;8.75;7.92;;;;;;;32.73;44.45;101367.40;1703918;83;21061;-54
2022/06/30 07:32:47;;;;;;;9.65;8.58;;;;;;;32.86;44.14;101379.94;1696826;83;21555;-56
2022/06/30 07:35:14;;;;;;;8.80;7.87;;;;;;;33.04;43.83;101382.55;1694475;84;21020;-52
2022/06/30 07:37:41;;;;;;;12.25;8.88;;;;;;;33.17;43.81;101378.41;1688923;83;21512;-52
2022/06/30 07:40:12;;;;;;;9.45;8.43;;;;;;;33.24;43.76;101386.16;1695997;83;21027;-51
2022/06/30 07:42:39;;;;;;;13.80;8.55;;;;;;;33.25;43.48;101382.47;1697365;83;21520;-50
2022/06/30 07:45:07;;;;;;;9.70;8.15;;;;;;;33.19;43.26;101388.52;1703027;83;21058;-51
2022/06/30 07:47:37;;;;;;;10.58;8.53;;;;;;;33.12;43.20;101383.43;1700864;83;21076;-49
2022/06/30 07:50:05;;;;;;;10.13;8.83;;;;;;;33.07;43.20;101393.88;1701136;83;21504;-52
2022/06/30 07:52:35;;;;;;;11.97;7.67;;;;;;;33.00;42.89;101388.78;1696002;83;21045;-54
2022/06/30 07:55:03;;;;;;;10.38;8.95;;;;;;;32.95;41.72;101392.95;1694058;83;21066;-50
2022/06/30 07:57:30;;;;;;;13.25;8.88;;;;;;;32.93;43.02;101393.62;1695733;83;21040;-51
2022/06/30 07:59:57;;;;;;;20.23;8.78;;;;;;;32.90;44.12;101401.52;1694089;83;21039;-52
2022/06/30 08:02:24;;;;;;;11.08;8.83;;;;;;;32.89;44.54;101403.89;1695954;84;20995;-52
2022/06/30 08:04:51;;;;;;;11.78;8.58;;;;;;;32.89;44.71;101405.23;1696992;83;21502;-49
2022/06/30 08:07:18;;;;;;;10.82;9.05;;;;;;;32.86;44.77;101404.20;1697331;83;21053;-52
2022/06/30 08:09:46;;;;;;;10.48;8.55;;;;;;;32.84;45.00;101404.37;1691510;83;21023;-55
2022/06/30 08:12:13;;;;;;;10.82;9.55;;;;;;;32.83;44.96;101407.20;1688393;83;21020;-53
2022/06/30 08:14:42;;;;;;;9.65;8.78;;;;;;;32.82;44.95;101400.14;1704911;82;21030;-49
2022/06/30 08:17:08;;;;;;;9.63;8.65;;;;;;;32.78;45.34;101398.77;1716288;82;21067;-51
2022/06/30 08:19:35;;;;;;;10.08;9.00;;;;;;;32.76;45.23;101404.83;1676776;82;21031;-49
2022/06/30 08:22:03;;;;;;;9.65;8.60;;;;;;;32.76;45.47;101401.63;1699448;84;21039;-51
2022/06/30 08:24:30;;;;;;;10.25;9.20;;;;;;;32.77;45.71;101407.84;1708332;82;21555;-49
2022/06/30 08:27:00;;;;;;;9.85;8.95;;;;;;;32.78;45.70;101414.94;1701866;82;21483;-49
2022/06/30 08:29:25;;;;;;;11.48;9.08;;;;;;;32.80;45.89;101409.74;1724150;81;21534;-53
2022/06/30 08:31:52;;;;;;;11.30;8.88;;;;;;;32.84;45.62;101416.99;1704200;84;21034;-52
2022/06/30 08:34:19;;;;;;;10.78;9.60;;;;;;;32.84;45.85;101419.69;1691924;84;20954;-49
2022/06/30 08:36:46;;;;;;;14.65;9.58;;;;;;;32.80;45.85;101423.22;1744961;80;21097;-49
2022/06/30 08:42:04;;;;;;;9.40;8.50;;;;;;;32.76;46.19;101421.00;1735626;80;21054;-51
2022/06/30 08:44:33;;;;;;;12.93;9.28;;;;;;;32.75;46.36;101421.98;1729891;81;21007;-49
2022/06/30 08:47:00;;;;;;;10.60;9.55;;;;;;;32.80;46.16;101421.02;1703833;84;21041;-49
2022/06/30 08:49:28;;;;;;;9.98;8.73;;;;;;;32.81;45.90;101421.34;1707339;84;21594;-51
2022/06/30 08:51:57;;;;;;;9.93;8.85;;;;;;;32.81;46.16;101418.64;1702656;84;21022;-50
2022/06/30 08:54:25;;;;;;;11.55;9.10;;;;;;;32.78;46.18;101420.33;1698749;84;21018;-51
2022/06/30 08:56:52;;;;;;;9.38;8.50;;;;;;;32.76;46.18;101423.70;1745867;80;21514;-49
2022/06/30 08:59:20;;;;;;;10.20;9.15;;;;;;;32.73;46.05;101431.59;1745729;80;21011;-52
2022/06/30 09:01:47;;;;;;;9.88;8.15;;;;;;;32.70;46.31;101431.07;1743684;80;21022;-50
2022/06/30 09:04:14;;;;;;;12.58;8.95;;;;;;;32.67;46.30;101434.07;1743017;80;21062;-51
2022/06/30 09:06:44;;;;;;;11.00;9.63;;;;;;;32.64;46.34;101443.84;1740832;80;21074;-55
2022/06/30 09:09:11;;;;;;;12.55;9.90;;;;;;;32.59;46.77;101454.23;1743342;80;21499;-55
2022/06/30 09:11:56;;;;;;;11.88;9.60;;;;;;;32.53;47.06;101446.78;1702315;84;21039;-51
2022/06/30 09:14:40;;;;;;;8.25;7.33;;;;;;;32.45;47.15;101444.00;1700381;84;21006;-51
2022/06/30 09:17:13;;;;;;;8.90;7.25;;;;;;;32.38;43.95;101464.48;1723116;80;21098;-53
2022/06/30 09:20:00;;;;;;;9.05;7.70;;;;;;;32.29;43.86;101485.64;1690317;84;21102;-52
2022/06/30 09:22:35;;;;;;;16.15;8.10;;;;;;;32.22;43.91;101492.63;1740215;81;21523;-49
2022/06/30 09:25:12;;;;;;;12.20;7.67;;;;;;;32.11;43.80;101483.47;1735211;81;21001;-52
2022/06/30 09:27:40;;;;;;;8.90;7.75;;;;;;;31.99;43.62;101486.38;1742299;81;21094;-51
2022/06/30 09:30:10;;;;;;;12.10;8.83;;;;;;;31.85;43.91;101478.81;1740989;81;21050;-51
2022/06/30 09:32:56;;;;;;;11.15;9.55;;;;;;;31.76;44.05;101477.02;1733321;81;21596;-49
2022/06/30 09:35:26;;;;;;;11.75;9.53;;;;;;;31.70;44.57;101478.12;1722491;81;21077;-51
2022/06/30 09:38:05;;;;;;;10.53;9.50;;;;;;;31.62;45.05;101474.86;1683837;83;21137;-51
2022/06/30 09:41:01;;;;;;;12.03;9.08;;;;;;;31.60;45.64;101466.09;1682096;83;21018;-51
2022/06/30 09:43:35;;;;;;;12.65;8.83;;;;;;;31.60;45.62;101472.81;1694594;83;21057;-49
2022/06/30 09:46:04;;;;;;;8.63;7.83;;;;;;;31.60;45.20;101472.81;1683787;83;21066;-52
2022/06/30 09:48:32;;;;;;;8.80;7.95;;;;;;;31.55;45.38;101468.38;1692533;83;21074;-49
2022/06/30 09:51:00;;;;;;;10.82;8.30;;;;;;;31.55;45.51;101467.55;1678335;83;21081;-55
2022/06/30 09:53:27;;;;;;;7.78;7.00;;;;;;;31.54;45.45;101457.28;1684147;83;21031;-53
2022/06/30 09:55:54;;;;;;;8.03;7.22;;;;;;;31.52;45.55;101452.55;1680763;83;21110;-52
2022/06/30 09:58:35;;;;;;;8.10;7.25;;;;;;;31.50;45.42;101448.31;1685755;83;21087;-52
2022/06/30 10:01:02;;;;;;;10.20;7.70;;;;;;;31.49;45.36;101450.14;1713661;82;21014;-52
2022/06/30 10:03:29;;;;;;;8.70;7.42;;;;;;;31.50;45.48;101445.12;1710583;82;21056;-49
2022/06/30 10:06:10;;;;;;;10.35;7.92;;;;;;;31.53;45.68;101452.88;1715889;82;21017;-52
2022/06/30 10:08:38;;;;;;;16.35;7.97;;;;;;;31.58;45.63;101461.36;1630313;86;21062;-52
2022/06/30 10:11:06;;;;;;;7.72;6.90;;;;;;;31.63;45.26;101461.77;1633857;86;21720;-48
2022/06/30 10:13:39;;;;;;;7.33;6.60;;;;;;;31.68;45.06;101461.28;1635290;88;21102;-54
2022/06/30 10:16:07;;;;;;;8.90;6.60;;;;;;;31.76;44.85;101469.44;1636955;86;21129;-52
2022/06/30 10:18:39;;;;;;;6.92;6.22;;;;;;;31.80;44.33;101475.71;1635689;86;21023;-52
2022/06/30 10:21:05;;;;;;;9.23;7.08;;;;;;;31.84;44.22;101472.24;1645029;86;21094;-50
2022/06/30 10:23:33;;;;;;;10.15;6.65;;;;;;;31.86;44.43;101488.56;1634745;88;21668;-50
2022/06/30 10:26:00;;;;;;;7.67;6.37;;;;;;;31.87;44.64;101501.03;1625835;86;21070;-51
2022/06/30 10:28:27;;;;;;;12.00;6.92;;;;;;;31.89;44.71;101499.03;1626405;88;21611;-51
2022/06/30 10:31:35;;;;;;;9.65;6.60;;;;;;;31.88;44.78;101500.02;1617576;87;21047;-53
2022/06/30 10:34:26;;;;;;;9.43;6.70;;;;;;;31.85;44.90;101503.52;1588300;89;21109;-50
2022/06/30 10:37:19;;;;;;;8.78;6.80;;;;;;;31.78;45.23;101503.28;1590564;89;21070;-50
2022/06/30 10:39:59;;;;;;;8.95;7.08;;;;;;;31.73;45.52;101512.81;1580521;89;21110;-52
2022/06/30 10:42:49;;;;;;;8.48;5.92;;;;;;;31.68;45.36;101517.30;1561915;91;21110;-50
2022/06/30 10:45:34;;;;;;;7.65;6.00;;;;;;;31.61;45.47;101524.30;1562582;91;21142;-49
2022/06/30 10:48:07;;;;;;;6.55;5.90;;;;;;;31.51;45.42;101530.20;1567800;91;21722;-52
2022/06/30 10:50:42;;;;;;;7.95;6.17;;;;;;;31.42;45.39;101527.57;1566034;91;21046;-53
2022/06/30 10:53:16;;;;;;;15.93;13.58;;;;;;;31.29;44.93;101534.59;1568334;91;21117;-52
2022/06/30 10:55:52;;;;;;;8.23;4.50;;;;;;;31.14;44.66;101534.75;1516561;94;21650;-52
2022/06/30 10:58:22;;;;;;;6.58;4.67;;;;;;;31.00;44.77;101515.03;1510677;94;21106;-50
2022/06/30 11:00:59;;;;;;;4.55;3.75;;;;;;;30.90;44.76;101520.44;1514176;94;21138;-50
2022/06/30 11:03:40;;;;;;;4.92;4.00;;;;;;;30.80;44.65;101536.20;1521484;93;21090;-49
2022/06/30 11:06:10;;;;;;;5.42;4.15;;;;;;;30.72;45.01;101517.27;1590007;89;21052;-51
2022/06/30 11:08:48;;;;;;;5.20;3.00;;;;;;;30.72;45.23;101503.84;1598340;89;21043;-55
2022/06/30 11:11:27;;;;;;;4.78;3.08;;;;;;;30.73;45.18;101495.63;1603065;89;21902;-51
2022/06/30 11:14:08;;;;;;;3.77;3.47;;;;;;;30.76;45.42;101501.20;1597397;89;21591;-51
2022/06/30 11:16:37;;;;;;;5.87;3.55;;;;;;;30.80;45.62;101479.77;1595727;89;21578;-53
2022/06/30 11:19:15;;;;;;;9.68;3.83;;;;;;;30.86;45.35;101477.39;1604907;86;21005;-49
2022/06/30 11:21:43;;;;;;;3.90;3.42;;;;;;;30.87;44.65;101484.96;1639491;86;21556;-54
2022/06/30 11:24:11;;;;;;;4.72;3.20;;;;;;;30.84;44.82;101467.73;1627444;86;21025;-49
2022/06/30 11:29:27;;;;;;;5.30;3.72;;;;;;;30.84;43.20;101462.36;1635751;86;21088;-54
2022/06/30 11:31:59;;;;;;;2.90;2.30;;;;;;;30.76;42.66;101457.73;1637744;88;21033;-51
2022/06/30 11:34:26;;;;;;;4.33;2.35;;;;;;;30.71;42.58;101441.19;1665717;84;21053;-53
2022/06/30 11:36:53;;;;;;;4.62;2.70;;;;;;;30.68;42.25;101435.27;1670736;85;21067;-53
2022/06/30 11:39:21;;;;;;;7.33;3.60;;;;;;;30.65;42.37;101436.40;1672651;85;21077;-51
2022/06/30 11:41:55;;;;;;;5.85;2.83;;;;;;;30.61;42.53;101437.69;1661792;85;21086;-53
2022/06/30 11:44:32;;;;;;;5.62;2.55;;;;;;;30.61;42.51;101437.69;1672925;85;21042;-51
2022/06/30 11:47:02;;;;;;;6.78;2.22;;;;;;;30.62;41.46;101424.63;1669547;85;21078;-50
2022/06/30 11:49:48;;;;;;;6.95;2.20;;;;;;;30.63;41.09;101434.84;1671001;85;21033;-52
2022/06/30 11:52:37;;;;;;;7.20;2.20;;;;;;;30.64;40.80;101439.23;1701693;80;21022;-52